sensor_id;sensor_type;location;lat;lon;timestamp;P1;durP1;ratioP1;P2;durP2;ratioP2
35943;SDS011;22029;54.774;9.434;2023-04-03T00:00:55;0.49;;;0.49;;
35943;SDS011;22029;54.774;9.434;2023-04-03T00:03:35;0.50;;;0.50;;
35943;SDS011;22029;54.774;9.434;2023-04-03T00:06:09;0.50;;;0.50;;
35943;SDS011;22029;54.774;9.434;2023-04-03T00:08:42;0.34;;;0.34;;
35943;SDS011;22029;54.774;9.434;2023-04-03T00:11:16;0.50;;;0.50;;
35943;SDS011;22029;54.774;9.434;2023-04-03T00:13:54;0.50;;;0.50;;
35943;SDS011;22029;54.774;9.434;2023-04-03T00:16:32;0.50;;;0.50;;
35943;SDS011;22029;54.774;9.434;2023-04-03T00:19:08;0.40;;;0.40;;
35943;SDS011;22029;54.774;9.434;2023-04-03T00:21:48;0.50;;;0.50;;
35943;SDS011;22029;54.774;9.434;2023-04-03T00:24:25;0.40;;;0.40;;
35943;SDS011;22029;54.774;9.434;2023-04-03T00:27:00;0.50;;;0.50;;
35943;SDS011;22029;54.774;9.434;2023-04-03T00:29:31;0.44;;;0.44;;
35943;SDS011;22029;54.774;9.434;2023-04-03T00:32:08;0.40;;;0.40;;
35943;SDS011;22029;54.774;9.434;2023-04-03T00:34:40;0.50;;;0.50;;
35943;SDS011;22029;54.774;9.434;2023-04-03T00:37:20;0.46;;;0.46;;
35943;SDS011;22029;54.774;9.434;2023-04-03T00:39:59;0.50;;;0.50;;
35943;SDS011;22029;54.774;9.434;2023-04-03T00:42:35;0.30;;;0.30;;
35943;SDS011;22029;54.774;9.434;2023-04-03T00:45:29;0.50;;;0.50;;
35943;SDS011;22029;54.774;9.434;2023-04-03T00:48:11;0.40;;;0.40;;
35943;SDS011;22029;54.774;9.434;2023-04-03T00:50:53;0.40;;;0.40;;
35943;SDS011;22029;54.774;9.434;2023-04-03T00:53:28;0.40;;;0.40;;
35943;SDS011;22029;54.774;9.434;2023-04-03T00:56:08;0.40;;;0.40;;
35943;SDS011;22029;54.774;9.434;2023-04-03T00:58:46;0.50;;;0.50;;
35943;SDS011;22029;54.774;9.434;2023-04-03T01:01:30;0.40;;;0.40;;
35943;SDS011;22029;54.774;9.434;2023-04-03T01:04:00;0.50;;;0.50;;
35943;SDS011;22029;54.774;9.434;2023-04-03T01:06:37;0.50;;;0.50;;
35943;SDS011;22029;54.774;9.434;2023-04-03T01:09:15;0.50;;;0.50;;
35943;SDS011;22029;54.774;9.434;2023-04-03T01:11:52;0.40;;;0.40;;
35943;SDS011;22029;54.774;9.434;2023-04-03T01:14:33;0.45;;;0.45;;
35943;SDS011;22029;54.774;9.434;2023-04-03T01:22:54;0.45;;;0.45;;
35943;SDS011;22029;54.774;9.434;2023-04-03T01:25:25;0.50;;;0.50;;
35943;SDS011;22029;54.774;9.434;2023-04-03T01:27:59;0.40;;;0.40;;
35943;SDS011;22029;54.774;9.434;2023-04-03T01:30:30;0.44;;;0.44;;
35943;SDS011;22029;54.774;9.434;2023-04-03T01:33:01;0.40;;;0.40;;
35943;SDS011;22029;54.774;9.434;2023-04-03T01:35:40;0.50;;;0.50;;
35943;SDS011;22029;54.774;9.434;2023-04-03T01:38:10;0.40;;;0.40;;
35943;SDS011;22029;54.774;9.434;2023-04-03T01:40:39;0.50;;;0.50;;
35943;SDS011;22029;54.774;9.434;2023-04-03T01:43:19;0.40;;;0.40;;
35943;SDS011;22029;54.774;9.434;2023-04-03T01:45:56;0.49;;;0.49;;
35943;SDS011;22029;54.774;9.434;2023-04-03T01:51:08;0.40;;;0.40;;
35943;SDS011;22029;54.774;9.434;2023-04-03T01:53:37;0.50;;;0.50;;
35943;SDS011;22029;54.774;9.434;2023-04-03T01:56:15;0.50;;;0.50;;
35943;SDS011;22029;54.774;9.434;2023-04-03T01:58:51;0.50;;;0.50;;
35943;SDS011;22029;54.774;9.434;2023-04-03T02:01:26;0.40;;;0.40;;
35943;SDS011;22029;54.774;9.434;2023-04-03T02:04:03;0.50;;;0.50;;
35943;SDS011;22029;54.774;9.434;2023-04-03T02:06:40;0.50;;;0.50;;
35943;SDS011;22029;54.774;9.434;2023-04-03T02:09:16;0.40;;;0.40;;
35943;SDS011;22029;54.774;9.434;2023-04-03T02:11:45;0.46;;;0.46;;
35943;SDS011;22029;54.774;9.434;2023-04-03T02:14:17;0.50;;;0.50;;
35943;SDS011;22029;54.774;9.434;2023-04-03T02:16:55;0.50;;;0.50;;
35943;SDS011;22029;54.774;9.434;2023-04-03T02:19:33;0.40;;;0.40;;
35943;SDS011;22029;54.774;9.434;2023-04-03T02:22:12;0.40;;;0.40;;
35943;SDS011;22029;54.774;9.434;2023-04-03T02:24:48;0.50;;;0.50;;
35943;SDS011;22029;54.774;9.434;2023-04-03T02:27:25;0.50;;;0.50;;
35943;SDS011;22029;54.774;9.434;2023-04-03T02:30:05;0.50;;;0.50;;
35943;SDS011;22029;54.774;9.434;2023-04-03T02:32:53;0.50;;;0.50;;
35943;SDS011;22029;54.774;9.434;2023-04-03T02:35:35;0.50;;;0.50;;
35943;SDS011;22029;54.774;9.434;2023-04-03T02:38:27;0.50;;;0.50;;
35943;SDS011;22029;54.774;9.434;2023-04-03T02:41:12;0.40;;;0.40;;
35943;SDS011;22029;54.774;9.434;2023-04-03T02:43:55;0.43;;;0.43;;
35943;SDS011;22029;54.774;9.434;2023-04-03T02:46:37;0.49;;;0.49;;
35943;SDS011;22029;54.774;9.434;2023-04-03T02:49:22;0.40;;;0.40;;
35943;SDS011;22029;54.774;9.434;2023-04-03T02:52:02;0.45;;;0.45;;
35943;SDS011;22029;54.774;9.434;2023-04-03T02:54:50;0.50;;;0.50;;
35943;SDS011;22029;54.774;9.434;2023-04-03T02:57:36;0.50;;;0.50;;
35943;SDS011;22029;54.774;9.434;2023-04-03T03:00:20;0.39;;;0.39;;
35943;SDS011;22029;54.774;9.434;2023-04-03T03:02:59;0.49;;;0.49;;
35943;SDS011;22029;54.774;9.434;2023-04-03T03:05:49;0.50;;;0.50;;
35943;SDS011;22029;54.774;9.434;2023-04-03T03:08:29;0.47;;;0.47;;
35943;SDS011;22029;54.774;9.434;2023-04-03T03:11:14;0.40;;;0.40;;
35943;SDS011;22029;54.774;9.434;2023-04-03T03:13:49;0.49;;;0.49;;
35943;SDS011;22029;54.774;9.434;2023-04-03T03:16:30;0.50;;;0.50;;
35943;SDS011;22029;54.774;9.434;2023-04-03T03:19:09;0.40;;;0.40;;
35943;SDS011;22029;54.774;9.434;2023-04-03T03:21:50;0.45;;;0.45;;
35943;SDS011;22029;54.774;9.434;2023-04-03T03:24:37;0.50;;;0.50;;
35943;SDS011;22029;54.774;9.434;2023-04-03T03:27:19;0.50;;;0.50;;
35943;SDS011;22029;54.774;9.434;2023-04-03T03:30:08;0.45;;;0.45;;
35943;SDS011;22029;54.774;9.434;2023-04-03T03:32:49;0.44;;;0.44;;
35943;SDS011;22029;54.774;9.434;2023-04-03T03:35:39;0.44;;;0.44;;
35943;SDS011;22029;54.774;9.434;2023-04-03T03:38:23;0.40;;;0.40;;
35943;SDS011;22029;54.774;9.434;2023-04-03T03:41:14;0.40;;;0.40;;
35943;SDS011;22029;54.774;9.434;2023-04-03T03:43:55;0.43;;;0.43;;
35943;SDS011;22029;54.774;9.434;2023-04-03T03:46:44;0.50;;;0.50;;
35943;SDS011;22029;54.774;9.434;2023-04-03T03:49:24;0.38;;;0.38;;
35943;SDS011;22029;54.774;9.434;2023-04-03T03:52:09;0.50;;;0.50;;
35943;SDS011;22029;54.774;9.434;2023-04-03T03:54:58;0.49;;;0.49;;
35943;SDS011;22029;54.774;9.434;2023-04-03T03:57:43;0.50;;;0.50;;
35943;SDS011;22029;54.774;9.434;2023-04-03T04:00:34;0.50;;;0.50;;
35943;SDS011;22029;54.774;9.434;2023-04-03T04:03:18;0.43;;;0.43;;
35943;SDS011;22029;54.774;9.434;2023-04-03T04:05:50;0.30;;;0.30;;
35943;SDS011;22029;54.774;9.434;2023-04-03T04:08:20;0.45;;;0.45;;
35943;SDS011;22029;54.774;9.434;2023-04-03T04:11:05;0.46;;;0.46;;
35943;SDS011;22029;54.774;9.434;2023-04-03T04:13:37;0.45;;;0.45;;
35943;SDS011;22029;54.774;9.434;2023-04-03T04:16:26;0.50;;;0.50;;
35943;SDS011;22029;54.774;9.434;2023-04-03T04:19:14;0.50;;;0.50;;
35943;SDS011;22029;54.774;9.434;2023-04-03T04:22:03;0.43;;;0.43;;
35943;SDS011;22029;54.774;9.434;2023-04-03T04:24:46;0.47;;;0.47;;
35943;SDS011;22029;54.774;9.434;2023-04-03T04:27:27;0.50;;;0.50;;
35943;SDS011;22029;54.774;9.434;2023-04-03T04:30:11;0.39;;;0.39;;
35943;SDS011;22029;54.774;9.434;2023-04-03T04:32:56;0.42;;;0.42;;
35943;SDS011;22029;54.774;9.434;2023-04-03T04:35:38;0.50;;;0.50;;
35943;SDS011;22029;54.774;9.434;2023-04-03T04:38:25;0.50;;;0.50;;
35943;SDS011;22029;54.774;9.434;2023-04-03T04:41:19;0.50;;;0.50;;
35943;SDS011;22029;54.774;9.434;2023-04-03T04:44:04;0.50;;;0.50;;
35943;SDS011;22029;54.774;9.434;2023-04-03T04:46:51;0.49;;;0.49;;
35943;SDS011;22029;54.774;9.434;2023-04-03T04:49:22;0.40;;;0.40;;
35943;SDS011;22029;54.774;9.434;2023-04-03T04:52:06;0.50;;;0.50;;
35943;SDS011;22029;54.774;9.434;2023-04-03T04:54:53;0.48;;;0.48;;
35943;SDS011;22029;54.774;9.434;2023-04-03T04:57:42;0.45;;;0.45;;
35943;SDS011;22029;54.774;9.434;2023-04-03T05:00:32;0.48;;;0.48;;
35943;SDS011;22029;54.774;9.434;2023-04-03T05:03:16;0.49;;;0.49;;
35943;SDS011;22029;54.774;9.434;2023-04-03T05:05:59;0.44;;;0.44;;
35943;SDS011;22029;54.774;9.434;2023-04-03T05:08:41;0.50;;;0.50;;
35943;SDS011;22029;54.774;9.434;2023-04-03T05:11:24;0.38;;;0.38;;
35943;SDS011;22029;54.774;9.434;2023-04-03T05:14:12;0.50;;;0.50;;
35943;SDS011;22029;54.774;9.434;2023-04-03T05:17:00;0.49;;;0.49;;
35943;SDS011;22029;54.774;9.434;2023-04-03T05:19:39;0.41;;;0.41;;
35943;SDS011;22029;54.774;9.434;2023-04-03T05:22:30;0.48;;;0.48;;
35943;SDS011;22029;54.774;9.434;2023-04-03T05:25:24;0.50;;;0.50;;
35943;SDS011;22029;54.774;9.434;2023-04-03T05:28:07;0.49;;;0.49;;
35943;SDS011;22029;54.774;9.434;2023-04-03T05:30:55;0.45;;;0.45;;
35943;SDS011;22029;54.774;9.434;2023-04-03T05:33:43;0.50;;;0.50;;
35943;SDS011;22029;54.774;9.434;2023-04-03T05:36:29;0.45;;;0.45;;
35943;SDS011;22029;54.774;9.434;2023-04-03T05:39:20;0.40;;;0.40;;
35943;SDS011;22029;54.774;9.434;2023-04-03T05:42:05;0.40;;;0.40;;
35943;SDS011;22029;54.774;9.434;2023-04-03T05:44:47;0.50;;;0.50;;
35943;SDS011;22029;54.774;9.434;2023-04-03T05:47:27;0.40;;;0.40;;
35943;SDS011;22029;54.774;9.434;2023-04-03T05:50:07;0.40;;;0.40;;
35943;SDS011;22029;54.774;9.434;2023-04-03T05:52:48;0.50;;;0.50;;
35943;SDS011;22029;54.774;9.434;2023-04-03T05:55:34;0.50;;;0.50;;
35943;SDS011;22029;54.774;9.434;2023-04-03T05:58:19;0.36;;;0.36;;
35943;SDS011;22029;54.774;9.434;2023-04-03T06:01:08;0.40;;;0.40;;
35943;SDS011;22029;54.774;9.434;2023-04-03T06:04:07;0.47;;;0.47;;
35943;SDS011;22029;54.774;9.434;2023-04-03T06:07:10;0.35;;;0.35;;
35943;SDS011;22029;54.774;9.434;2023-04-03T06:13:18;0.34;;;0.34;;
35943;SDS011;22029;54.774;9.434;2023-04-03T06:17:02;0.38;;;0.38;;
35943;SDS011;22029;54.774;9.434;2023-04-03T06:21:00;0.35;;;0.35;;
35943;SDS011;22029;54.774;9.434;2023-04-03T06:24:48;0.43;;;0.43;;
35943;SDS011;22029;54.774;9.434;2023-04-03T06:28:36;0.45;;;0.45;;
35943;SDS011;22029;54.774;9.434;2023-04-03T06:35:44;0.40;;;0.40;;
35943;SDS011;22029;54.774;9.434;2023-04-03T06:39:46;0.35;;;0.35;;
35943;SDS011;22029;54.774;9.434;2023-04-03T06:43:33;0.38;;;0.38;;
35943;SDS011;22029;54.774;9.434;2023-04-03T06:47:21;0.40;;;0.40;;
35943;SDS011;22029;54.774;9.434;2023-04-03T06:51:23;0.40;;;0.40;;
35943;SDS011;22029;54.774;9.434;2023-04-03T06:55:26;0.43;;;0.43;;
35943;SDS011;22029;54.774;9.434;2023-04-03T06:59:14;0.45;;;0.45;;
35943;SDS011;22029;54.774;9.434;2023-04-03T07:03:02;0.46;;;0.46;;
35943;SDS011;22029;54.774;9.434;2023-04-03T07:07:03;0.40;;;0.40;;
35943;SDS011;22029;54.774;9.434;2023-04-03T07:14:22;0.47;;;0.47;;
35943;SDS011;22029;54.774;9.434;2023-04-03T07:24:37;0.30;;;0.30;;
35943;SDS011;22029;54.774;9.434;2023-04-03T07:28:40;0.40;;;0.40;;
35943;SDS011;22029;54.774;9.434;2023-04-03T07:32:28;0.45;;;0.45;;
35943;SDS011;22029;54.774;9.434;2023-04-03T07:36:15;0.40;;;0.40;;
35943;SDS011;22029;54.774;9.434;2023-04-03T07:40:17;0.35;;;0.35;;
35943;SDS011;22029;54.774;9.434;2023-04-03T07:44:16;0.28;;;0.28;;
35943;SDS011;22029;54.774;9.434;2023-04-03T07:48:04;0.25;;;0.25;;
35943;SDS011;22029;54.774;9.434;2023-04-03T07:51:51;0.22;;;0.22;;
35943;SDS011;22029;54.774;9.434;2023-04-03T07:55:55;0.28;;;0.28;;
35943;SDS011;22029;54.774;9.434;2023-04-03T07:59:56;0.30;;;0.30;;
35943;SDS011;22029;54.774;9.434;2023-04-03T08:03:21;0.28;;;0.28;;
35943;SDS011;22029;54.774;9.434;2023-04-03T08:07:08;0.30;;;0.30;;
35943;SDS011;22029;54.774;9.434;2023-04-03T08:26:38;0.30;;;0.30;;
35943;SDS011;22029;54.774;9.434;2023-04-03T08:30:40;0.30;;;0.30;;
35943;SDS011;22029;54.774;9.434;2023-04-03T08:34:29;0.20;;;0.20;;
35943;SDS011;22029;54.774;9.434;2023-04-03T08:38:19;0.20;;;0.20;;
35943;SDS011;22029;54.774;9.434;2023-04-03T08:55:31;0.30;;;0.30;;
35943;SDS011;22029;54.774;9.434;2023-04-03T09:09:06;0.30;;;0.30;;
35943;SDS011;22029;54.774;9.434;2023-04-03T09:12:57;0.20;;;0.20;;
35943;SDS011;22029;54.774;9.434;2023-04-03T09:16:47;0.20;;;0.20;;
35943;SDS011;22029;54.774;9.434;2023-04-03T09:26:05;0.30;;;0.30;;
35943;SDS011;22029;54.774;9.434;2023-04-03T09:28:39;0.30;;;0.30;;
35943;SDS011;22029;54.774;9.434;2023-04-03T09:31:20;0.30;;;0.30;;
35943;SDS011;22029;54.774;9.434;2023-04-03T09:38:17;0.28;;;0.28;;
35943;SDS011;22029;54.774;9.434;2023-04-03T10:00:58;0.28;;;0.28;;
35943;SDS011;22029;54.774;9.434;2023-04-03T10:05:00;0.28;;;0.28;;
35943;SDS011;22029;54.774;9.434;2023-04-03T10:08:58;0.25;;;0.25;;
35943;SDS011;22029;54.774;9.434;2023-04-03T10:12:45;0.30;;;0.30;;
35943;SDS011;22029;54.774;9.434;2023-04-03T10:41:45;0.17;;;0.17;;
35943;SDS011;22029;54.774;9.434;2023-04-03T10:55:43;0.28;;;0.28;;
35943;SDS011;22029;54.774;9.434;2023-04-03T10:59:36;0.20;;;0.20;;
35943;SDS011;22029;54.774;9.434;2023-04-03T11:03:27;0.17;;;0.17;;
35943;SDS011;22029;54.774;9.434;2023-04-03T11:29:19;0.17;;;0.17;;
35943;SDS011;22029;54.774;9.434;2023-04-03T11:33:37;0.17;;;0.17;;
35943;SDS011;22029;54.774;9.434;2023-04-03T11:37:29;0.15;;;0.15;;
35943;SDS011;22029;54.774;9.434;2023-04-03T11:41:20;0.10;;;0.10;;
35943;SDS011;22029;54.774;9.434;2023-04-03T12:32:03;0.10;;;0.10;;
35943;SDS011;22029;54.774;9.434;2023-04-03T12:36:08;0.03;;;0.03;;
35943;SDS011;22029;54.774;9.434;2023-04-03T12:40:01;0.10;;;0.10;;
35943;SDS011;22029;54.774;9.434;2023-04-03T12:43:55;0.00;;;0.00;;
35943;SDS011;22029;54.774;9.434;2023-04-03T12:48:09;0.10;;;0.10;;
35943;SDS011;22029;54.774;9.434;2023-04-03T12:51:59;0.10;;;0.10;;
35943;SDS011;22029;54.774;9.434;2023-04-03T12:55:46;0.10;;;0.10;;
35943;SDS011;22029;54.774;9.434;2023-04-03T13:09:19;0.10;;;0.10;;
35943;SDS011;22029;54.774;9.434;2023-04-03T13:13:22;0.03;;;0.03;;
35943;SDS011;22029;54.774;9.434;2023-04-03T13:17:12;0.18;;;0.18;;
35943;SDS011;22029;54.774;9.434;2023-04-03T13:21:01;0.08;;;0.08;;
35943;SDS011;22029;54.774;9.434;2023-04-03T13:59:43;0.03;;;0.03;;
35943;SDS011;22029;54.774;9.434;2023-04-03T14:03:30;0.10;;;0.10;;
35943;SDS011;22029;54.774;9.434;2023-04-03T14:10:37;0.10;;;0.10;;
35943;SDS011;22029;54.774;9.434;2023-04-03T14:14:42;0.10;;;0.10;;
35943;SDS011;22029;54.774;9.434;2023-04-03T14:18:31;0.10;;;0.10;;
35943;SDS011;22029;54.774;9.434;2023-04-03T14:22:20;0.05;;;0.05;;
35943;SDS011;22029;54.774;9.434;2023-04-03T15:00:46;0.10;;;0.10;;
35943;SDS011;22029;54.774;9.434;2023-04-03T15:04:48;0.10;;;0.10;;
35943;SDS011;22029;54.774;9.434;2023-04-03T15:08:38;0.08;;;0.08;;
35943;SDS011;22029;54.774;9.434;2023-04-03T15:12:26;0.00;;;0.00;;
35943;SDS011;22029;54.774;9.434;2023-04-03T16:31:40;0.25;;;0.25;;
35943;SDS011;22029;54.774;9.434;2023-04-03T16:35:43;0.25;;;0.25;;
35943;SDS011;22029;54.774;9.434;2023-04-03T16:39:31;0.20;;;0.20;;
35943;SDS011;22029;54.774;9.434;2023-04-03T16:43:18;0.30;;;0.30;;
35943;SDS011;22029;54.774;9.434;2023-04-03T18:54:30;0.40;;;0.40;;
35943;SDS011;22029;54.774;9.434;2023-04-03T18:58:33;0.38;;;0.38;;
35943;SDS011;22029;54.774;9.434;2023-04-03T19:02:21;0.38;;;0.38;;
35943;SDS011;22029;54.774;9.434;2023-04-03T19:06:10;0.38;;;0.38;;
35943;SDS011;22029;54.774;9.434;2023-04-03T19:31:53;0.47;;;0.47;;
35943;SDS011;22029;54.774;9.434;2023-04-03T19:35:54;0.38;;;0.38;;
35943;SDS011;22029;54.774;9.434;2023-04-03T19:39:43;0.38;;;0.38;;
35943;SDS011;22029;54.774;9.434;2023-04-03T19:43:30;0.47;;;0.47;;
35943;SDS011;22029;54.774;9.434;2023-04-03T20:49:31;0.38;;;0.38;;
35943;SDS011;22029;54.774;9.434;2023-04-03T20:53:33;0.47;;;0.47;;
35943;SDS011;22029;54.774;9.434;2023-04-03T20:57:21;0.52;;;0.52;;
35943;SDS011;22029;54.774;9.434;2023-04-03T21:01:12;0.47;;;0.47;;
35943;SDS011;22029;54.774;9.434;2023-04-03T22:57:59;0.43;;;0.43;;
35943;SDS011;22029;54.774;9.434;2023-04-03T23:02:01;0.40;;;0.40;;
35943;SDS011;22029;54.774;9.434;2023-04-03T23:05:49;0.40;;;0.40;;
35943;SDS011;22029;54.774;9.434;2023-04-03T23:09:36;0.47;;;0.47;;
35943;SDS011;22029;54.774;9.434;2023-04-03T23:41:34;0.47;;;0.47;;
35943;SDS011;22029;54.774;9.434;2023-04-03T23:45:36;0.38;;;0.38;;
35943;SDS011;22029;54.774;9.434;2023-04-03T23:49:24;0.45;;;0.45;;
35943;SDS011;22029;54.774;9.434;2023-04-03T23:53:11;0.40;;;0.40;;
